Time;durP1;ratioP1;P1;durP2;ratioP2;P2;SDS_P1;SDS_P2;PMS_P1;PMS_P2;Temp;Humidity;BMP_temperature;BMP_pressure;BME280_temperature;BME280_humidity;BME280_pressure;Samples;Min_cycle;Max_cycle;Signal;HPM_P1;HPM_P2
2022/08/19 00:01:17;;;;;;;10.98;10.15;;;;;;;21.61;61.97;92654.78;5040668;28;20755;-69
2022/08/19 00:03:42;;;;;;;10.75;9.88;;;;;;;21.54;61.22;92633.34;5039475;28;21026;-69
2022/08/19 00:06:09;;;;;;;10.93;9.95;;;;;;;21.62;60.90;92652.91;5040323;28;20184;-69
2022/08/19 00:08:35;;;;;;;10.60;9.90;;;;;;;21.69;60.56;92655.69;5040625;28;20220;-70
2022/08/19 00:11:00;;;;;;;10.45;9.85;;;;;;;21.65;60.13;92652.94;5040403;28;20201;-70
2022/08/19 00:13:28;;;;;;;11.40;10.60;;;;;;;21.67;60.58;92658.72;5040538;28;20220;-71
2022/08/19 00:15:54;;;;;;;12.07;10.93;;;;;;;21.71;59.77;92648.16;5041080;28;20477;-70
2022/08/19 00:18:20;;;;;;;11.32;10.43;;;;;;;21.73;60.04;92657.31;5042070;28;20190;-70
2022/08/19 00:20:45;;;;;;;11.70;10.90;;;;;;;21.77;59.57;92662.75;5041216;28;20895;-70
2022/08/19 00:23:10;;;;;;;11.30;10.40;;;;;;;21.60;59.65;92647.16;5039149;28;20192;-70
2022/08/19 00:25:36;;;;;;;11.43;10.52;;;;;;;21.70;59.69;92673.19;5037070;28;20303;-71
2022/08/19 00:28:02;;;;;;;11.13;10.32;;;;;;;21.83;58.92;92674.66;5036859;28;20216;-70
2022/08/19 00:30:28;;;;;;;11.05;10.25;;;;;;;21.75;60.16;92673.72;5038697;28;20230;-71
2022/08/19 00:32:54;;;;;;;10.80;9.93;;;;;;;21.63;60.51;92651.78;5039369;28;20194;-70
2022/08/19 00:35:20;;;;;;;10.88;10.25;;;;;;;21.73;61.13;92670.59;5041032;28;20235;-70
2022/08/19 00:37:47;;;;;;;10.88;10.20;;;;;;;21.66;61.84;92669.69;5041840;28;20189;-69
2022/08/19 00:40:13;;;;;;;10.82;10.02;;;;;;;21.37;62.33;92624.97;5042445;28;20224;-70
2022/08/19 00:42:39;;;;;;;11.32;10.35;;;;;;;21.57;62.79;92666.44;5040352;28;20186;-70
2022/08/19 00:45:14;;;;;;;10.52;9.70;;;;;;;21.50;62.56;92668.91;5041023;28;20220;-70
2022/08/19 00:47:40;;;;;;;11.40;10.50;;;;;;;21.36;63.17;92653.41;5042889;28;20188;-69
2022/08/19 00:50:08;;;;;;;10.55;9.75;;;;;;;21.27;63.40;92646.72;5038132;28;20262;-72
2022/08/19 00:52:36;;;;;;;11.00;10.20;;;;;;;21.23;63.58;92653.84;5038944;28;20181;-71
2022/08/19 00:55:05;;;;;;;10.25;9.65;;;;;;;21.13;63.82;92647.16;5038230;28;20223;-69
2022/08/19 00:57:36;;;;;;;12.45;11.55;;;;;;;21.18;64.56;92656.75;5036316;28;20252;-70
2022/08/19 01:00:11;;;;;;;11.13;10.43;;;;;;;21.17;64.34;92655.97;5041453;28;20223;-70
2022/08/19 01:02:36;;;;;;;11.05;10.15;;;;;;;21.16;64.08;92648.34;5037682;28;20278;-70
2022/08/19 01:05:06;;;;;;;10.73;10.02;;;;;;;21.18;64.08;92656.75;5037846;28;20246;-70
2022/08/19 01:07:34;;;;;;;11.32;10.40;;;;;;;21.12;64.44;92660.78;5037622;28;20296;-69
2022/08/19 01:10:00;;;;;;;9.75;9.15;;;;;;;20.94;64.72;92641.72;5037608;28;20233;-70
2022/08/19 01:12:25;;;;;;;11.52;10.77;;;;;;;20.88;66.02;92643.06;5041636;28;20191;-70
2022/08/19 01:14:52;;;;;;;11.57;10.77;;;;;;;21.02;65.20;92651.44;5041284;28;20237;-70
2022/08/19 01:17:18;;;;;;;10.45;9.75;;;;;;;20.97;65.13;92648.25;5043017;28;20215;-70
2022/08/19 01:19:46;;;;;;;12.18;11.27;;;;;;;21.00;65.02;92645.69;5036941;28;20257;-70
2022/08/19 01:22:12;;;;;;;11.15;10.40;;;;;;;20.93;65.48;92645.50;5037292;28;20195;-70
2022/08/19 01:24:37;;;;;;;10.75;10.05;;;;;;;20.88;65.86;92642.28;5038165;28;20313;-70
2022/08/19 01:27:07;;;;;;;11.80;10.30;;;;;;;20.85;65.78;92640.31;5041235;28;20222;-70
2022/08/19 01:29:34;;;;;;;11.18;10.32;;;;;;;20.82;65.78;92646.31;5036962;28;20227;-71
2022/08/19 01:32:01;;;;;;;11.50;10.43;;;;;;;20.83;65.37;92650.50;5039088;28;20193;-69
2022/08/19 01:34:26;;;;;;;11.10;10.40;;;;;;;20.80;65.20;92651.19;5037961;28;20227;-70
2022/08/19 01:36:52;;;;;;;11.00;10.25;;;;;;;20.69;65.69;92638.44;5039484;28;20192;-70
2022/08/19 01:39:21;;;;;;;10.63;9.80;;;;;;;20.72;66.15;92652.88;5038561;28;20235;-71
2022/08/19 01:41:47;;;;;;;10.27;9.57;;;;;;;20.64;66.01;92648.50;5040457;28;20191;-70
2022/08/19 01:44:13;;;;;;;10.10;9.48;;;;;;;20.43;65.80;92626.72;5039671;28;20251;-70
2022/08/19 01:46:39;;;;;;;11.50;10.52;;;;;;;20.44;65.92;92631.69;5040179;28;20203;-70
2022/08/19 01:49:05;;;;;;;12.07;11.07;;;;;;;20.50;65.88;92646.25;5040408;28;20229;-72
2022/08/19 01:51:30;;;;;;;11.07;10.25;;;;;;;20.46;66.00;92653.34;5037854;28;20224;-71
2022/08/19 01:53:56;;;;;;;11.98;10.65;;;;;;;20.44;66.51;92633.56;5039032;28;20230;-70
2022/08/19 01:56:23;;;;;;;11.73;10.75;;;;;;;20.46;66.88;92650.69;5038142;28;20233;-70
2022/08/19 01:59:02;;;;;;;10.75;9.75;;;;;;;20.44;66.93;92647.59;5036601;28;20251;-71
2022/08/19 02:01:31;;;;;;;10.18;9.57;;;;;;;20.40;67.08;92652.03;5036161;28;20181;-70
2022/08/19 02:03:58;;;;;;;11.23;10.18;;;;;;;20.38;67.54;92651.59;5035651;28;20309;-70
2022/08/19 02:06:23;;;;;;;12.07;11.10;;;;;;;20.39;67.53;92647.81;5038648;28;20220;-71
2022/08/19 02:08:49;;;;;;;11.57;10.57;;;;;;;20.34;67.24;92648.06;5038253;28;20229;-71
2022/08/19 02:11:23;;;;;;;10.95;9.98;;;;;;;20.29;67.94;92648.31;5038078;28;20252;-70
2022/08/19 02:13:49;;;;;;;10.98;10.18;;;;;;;20.29;67.06;92642.25;5037144;28;20237;-69
2022/08/19 02:16:17;;;;;;;11.38;10.68;;;;;;;20.27;66.42;92634.63;5035975;28;20254;-70
2022/08/19 02:18:42;;;;;;;12.00;11.10;;;;;;;20.23;66.83;92636.38;5039734;28;20267;-70
2022/08/19 02:21:08;;;;;;;10.82;9.82;;;;;;;20.22;66.25;92634.84;5036337;28;20526;-70
2022/08/19 02:23:33;;;;;;;11.82;10.82;;;;;;;20.27;65.81;92634.63;5039866;28;20205;-71
2022/08/19 02:25:58;;;;;;;11.20;9.98;;;;;;;20.35;66.41;92641.66;5038101;28;20274;-71
2022/08/19 02:28:24;;;;;;;10.98;9.98;;;;;;;20.33;67.05;92651.06;5039039;28;20194;-71
2022/08/19 02:30:49;;;;;;;9.85;9.23;;;;;;;20.31;66.86;92632.81;5040427;28;20187;-70
2022/08/19 02:33:15;;;;;;;9.63;8.80;;;;;;;20.30;67.12;92636.59;5036575;28;20186;-69
2022/08/19 02:35:43;;;;;;;10.05;9.25;;;;;;;20.43;66.75;92648.72;5038384;28;20224;-70
2022/08/19 02:38:27;;;;;;;10.60;9.90;;;;;;;20.39;67.46;92647.81;5038817;28;20219;-70
2022/08/19 02:40:58;;;;;;;10.30;9.63;;;;;;;20.26;68.11;92648.22;5036387;28;20212;-70
2022/08/19 02:43:25;;;;;;;10.23;9.43;;;;;;;20.22;68.41;92658.72;5038361;28;20200;-70
2022/08/19 02:45:51;;;;;;;10.45;9.75;;;;;;;20.12;68.30;92648.56;5039771;28;20187;-70
2022/08/19 02:48:22;;;;;;;10.43;9.73;;;;;;;20.08;68.98;92652.19;5039846;28;20188;-69
2022/08/19 02:50:55;;;;;;;10.45;9.75;;;;;;;20.07;69.10;92650.66;5038278;28;20255;-70
2022/08/19 02:53:26;;;;;;;10.43;9.63;;;;;;;19.89;70.16;92647.50;5040011;28;20194;-69
2022/08/19 02:55:51;;;;;;;10.52;9.82;;;;;;;20.10;69.84;92661.38;5039280;28;20248;-70
2022/08/19 02:58:18;;;;;;;10.57;9.77;;;;;;;19.93;70.02;92652.91;5037099;28;20254;-70
2022/08/19 03:00:50;;;;;;;11.50;10.48;;;;;;;19.97;70.84;92667.78;5038506;28;20272;-70
2022/08/19 03:03:17;;;;;;;12.05;11.13;;;;;;;19.89;70.51;92665.28;5040513;28;20194;-70
2022/08/19 03:05:43;;;;;;;11.13;10.32;;;;;;;19.89;70.55;92666.03;5038849;28;20232;-69
2022/08/19 03:08:12;;;;;;;11.48;10.50;;;;;;;19.95;70.34;92664.72;5037863;28;20213;-70
2022/08/19 03:10:47;;;;;;;10.30;9.57;;;;;;;19.89;70.54;92663.38;5036569;28;20240;-70
2022/08/19 03:13:16;;;;;;;11.68;10.88;;;;;;;19.71;71.12;92663.97;5037786;28;20195;-70
2022/08/19 03:15:44;;;;;;;11.48;10.68;;;;;;;19.72;71.01;92660.97;5039317;28;20233;-70
2022/08/19 03:18:10;;;;;;;10.23;9.52;;;;;;;19.72;69.93;92649.63;5036619;28;20193;-70
2022/08/19 03:20:47;;;;;;;10.95;10.25;;;;;;;19.75;70.55;92647.06;5036986;28;20220;-70
2022/08/19 03:23:14;;;;;;;11.05;10.32;;;;;;;19.52;71.28;92621.41;5036576;28;20189;-69
2022/08/19 03:25:42;;;;;;;10.48;9.70;;;;;;;19.71;70.92;92648.06;5035575;28;20217;-70
2022/08/19 03:28:12;;;;;;;11.13;9.63;;;;;;;19.81;70.23;92648.41;5042245;28;20335;-69
2022/08/19 03:30:42;;;;;;;10.40;9.48;;;;;;;19.58;70.58;92634.06;5043762;28;20260;-70
2022/08/19 03:33:09;;;;;;;10.63;10.00;;;;;;;19.53;71.78;92646.78;5042238;28;20182;-70
2022/08/19 03:35:37;;;;;;;11.13;10.03;;;;;;;19.57;71.00;92648.41;5038646;28;20225;-69
2022/08/19 03:38:04;;;;;;;11.43;10.50;;;;;;;19.61;71.23;92649.28;5040109;28;20193;-70
2022/08/19 03:40:30;;;;;;;10.83;10.03;;;;;;;19.24;71.28;92602.72;5040172;28;20256;-70
2022/08/19 03:42:56;;;;;;;10.77;9.97;;;;;;;19.30;72.54;92638.47;5041274;28;20218;-69
2022/08/19 03:45:22;;;;;;;10.07;9.48;;;;;;;19.53;71.94;92650.19;5041716;28;20244;-69
2022/08/19 03:47:47;;;;;;;9.70;8.90;;;;;;;19.62;71.28;92645.56;5042655;28;20202;-69
2022/08/19 03:50:13;;;;;;;10.18;9.05;;;;;;;19.71;71.07;92661.31;5041770;28;20228;-70
2022/08/19 03:52:39;;;;;;;10.17;9.27;;;;;;;19.73;70.48;92661.75;5041516;28;20246;-69
2022/08/19 03:55:05;;;;;;;10.83;10.03;;;;;;;19.79;70.58;92678.97;5044458;28;20233;-70
2022/08/19 03:57:30;;;;;;;10.63;9.63;;;;;;;19.78;71.33;92674.78;5042250;28;20436;-70
2022/08/19 03:59:55;;;;;;;11.50;10.70;;;;;;;19.86;70.89;92669.34;5040934;28;20282;-70
2022/08/19 04:02:21;;;;;;;10.30;9.48;;;;;;;19.94;70.72;92676.41;5041953;28;20245;-68
2022/08/19 04:04:46;;;;;;;10.95;10.07;;;;;;;20.03;70.65;92692.22;5042272;28;20242;-70
2022/08/19 04:07:15;;;;;;;12.00;10.83;;;;;;;20.03;70.17;92671.75;5041429;28;20225;-70
2022/08/19 04:09:41;;;;;;;11.13;10.33;;;;;;;20.15;71.31;92690.34;5040428;28;20235;-69
2022/08/19 04:12:07;;;;;;;10.90;10.10;;;;;;;20.26;69.94;92680.81;5040679;28;20170;-70
2022/08/19 04:14:34;;;;;;;10.73;9.82;;;;;;;20.29;70.51;92685.44;5041180;28;20286;-70
2022/08/19 04:17:01;;;;;;;11.95;10.73;;;;;;;20.37;70.39;92678.47;5041030;28;20707;-70
2022/08/19 04:19:29;;;;;;;11.10;10.20;;;;;;;20.43;70.16;92691.16;5040348;28;20242;-69
2022/08/19 04:21:55;;;;;;;10.07;9.30;;;;;;;20.62;69.34;92698.50;5039954;28;20209;-70
2022/08/19 04:24:22;;;;;;;11.88;10.73;;;;;;;20.48;70.02;92682.94;5037908;28;20242;-70
2022/08/19 04:26:48;;;;;;;11.02;10.23;;;;;;;20.50;71.80;92696.63;5042025;28;20230;-70
2022/08/19 04:29:21;;;;;;;11.85;10.95;;;;;;;20.65;70.46;92705.78;5039515;28;20245;-68
2022/08/19 04:31:48;;;;;;;10.32;9.52;;;;;;;20.76;70.29;92701.53;5037075;28;20222;-71
2022/08/19 04:34:17;;;;;;;10.77;9.70;;;;;;;20.91;69.93;92700.00;5039025;28;20230;-70
2022/08/19 04:36:44;;;;;;;11.07;10.27;;;;;;;21.02;69.70;92703.75;5040115;28;20217;-70
2022/08/19 04:39:16;;;;;;;11.77;10.88;;;;;;;21.18;68.68;92696.59;5038979;28;20274;-70
2022/08/19 04:44:30;;;;;;;11.35;10.35;;;;;;;21.32;68.62;92683.66;5038323;28;20239;-70
2022/08/19 04:46:56;;;;;;;10.13;9.32;;;;;;;21.37;69.15;92684.16;5038370;28;20180;-70
2022/08/19 04:49:23;;;;;;;12.90;11.90;;;;;;;21.57;67.42;92696.41;5038553;28;20280;-69
2022/08/19 04:51:50;;;;;;;12.30;11.23;;;;;;;21.60;67.36;92694.97;5037392;28;20246;-70
2022/08/19 04:54:17;;;;;;;12.55;11.65;;;;;;;22.00;62.13;92706.19;5033082;28;20238;-69
2022/08/19 04:56:43;;;;;;;12.38;11.35;;;;;;;22.02;63.65;92703.97;5039743;28;20274;-70
2022/08/19 04:59:10;;;;;;;12.60;11.57;;;;;;;22.05;64.53;92700.63;5035312;28;20227;-70
2022/08/19 05:01:36;;;;;;;12.20;11.07;;;;;;;22.22;63.16;92702.88;5038246;28;20238;-69
2022/08/19 05:04:04;;;;;;;12.43;11.52;;;;;;;22.36;62.85;92716.50;5038827;28;20229;-70
2022/08/19 05:06:32;;;;;;;12.38;11.38;;;;;;;22.44;61.14;92712.09;5032146;28;20206;-70
2022/08/19 05:08:58;;;;;;;11.27;10.38;;;;;;;22.53;59.32;92710.81;5038141;28;20245;-73
2022/08/19 05:11:36;;;;;;;12.70;11.63;;;;;;;22.60;60.78;92721.56;5038612;28;20197;-71
2022/08/19 05:14:01;;;;;;;14.90;13.48;;;;;;;22.67;60.57;92711.09;5036240;28;20254;-70
2022/08/19 05:16:27;;;;;;;13.75;12.38;;;;;;;22.79;58.64;92697.63;5040386;28;20275;-70
2022/08/19 05:24:24;;;;;;;12.75;11.73;;;;;;;23.00;60.30;92716.69;5038354;28;20266;-70
2022/08/19 05:26:52;;;;;;;13.98;12.80;;;;;;;23.14;59.75;92714.28;5040949;28;20219;-69
2022/08/19 05:29:21;;;;;;;13.10;12.00;;;;;;;23.29;59.09;92713.44;5038745;28;20229;-69
2022/08/19 05:31:49;;;;;;;11.90;11.00;;;;;;;23.40;58.77;92713.63;5041109;28;20227;-69
2022/08/19 05:34:15;;;;;;;12.88;11.88;;;;;;;23.56;58.16;92714.28;5040730;28;20212;-68
2022/08/19 05:36:43;;;;;;;15.32;13.98;;;;;;;23.51;57.18;92707.38;5040948;28;20286;-69
2022/08/19 05:39:11;;;;;;;13.60;12.50;;;;;;;23.60;57.62;92713.22;5036149;28;20228;-69
2022/08/19 05:41:46;;;;;;;12.70;11.43;;;;;;;23.61;57.72;92706.00;5040935;28;20207;-69
2022/08/19 05:44:12;;;;;;;11.88;10.98;;;;;;;24.02;57.38;92720.38;5036706;28;20240;-70
2022/08/19 05:46:38;;;;;;;12.73;11.73;;;;;;;23.71;58.25;92724.84;5039168;28;20214;-70
2022/08/19 05:49:06;;;;;;;11.60;10.70;;;;;;;23.85;58.17;92726.94;5036313;28;20245;-71
2022/08/19 05:51:33;;;;;;;12.25;11.23;;;;;;;24.34;54.86;92721.63;5035107;28;20189;-70
2022/08/19 05:53:59;;;;;;;12.10;11.07;;;;;;;24.48;54.66;92716.47;5035285;28;20229;-70
2022/08/19 05:56:25;;;;;;;12.02;11.13;;;;;;;25.37;51.31;92725.22;5036739;28;20231;-69
2022/08/19 05:58:50;;;;;;;12.18;11.18;;;;;;;25.69;50.86;92728.19;5034563;28;20268;-70
2022/08/19 06:01:18;;;;;;;12.73;11.55;;;;;;;25.99;48.96;92726.97;5037294;28;20260;-69
2022/08/19 06:03:44;;;;;;;12.85;11.75;;;;;;;25.60;50.32;92727.75;5038638;28;20248;-70
2022/08/19 06:06:13;;;;;;;13.27;12.05;;;;;;;27.11;47.10;92734.16;5036051;28;20186;-70
2022/08/19 06:08:39;;;;;;;12.13;11.13;;;;;;;29.94;40.24;92747.69;5038382;28;20210;-72
2022/08/19 06:11:25;;;;;;;12.38;10.88;;;;;;;31.44;37.35;92756.34;5033455;28;20194;-71
2022/08/19 06:13:53;;;;;;;11.77;9.90;;;;;;;33.08;35.04;92756.91;5038128;28;20248;-71
2022/08/19 06:16:21;;;;;;;11.75;10.40;;;;;;;34.60;32.17;92756.03;5037496;28;20222;-71
2022/08/19 06:18:51;;;;;;;11.27;10.10;;;;;;;34.56;31.25;92759.97;5037516;28;20307;-71
2022/08/19 06:21:21;;;;;;;11.50;10.32;;;;;;;31.68;36.36;92762.56;5034946;28;20347;-69
2022/08/19 06:23:47;;;;;;;11.20;10.18;;;;;;;28.41;43.22;92747.81;5036089;28;20244;-70
2022/08/19 06:26:13;;;;;;;15.13;10.10;;;;;;;28.05;44.89;92744.38;5035963;28;20258;-72
2022/08/19 06:28:43;;;;;;;12.05;10.95;;;;;;;27.78;45.63;92741.25;5033667;28;20196;-71
2022/08/19 06:31:09;;;;;;;11.75;10.75;;;;;;;27.37;46.11;92740.03;5036253;28;20192;-71
2022/08/19 06:33:35;;;;;;;12.40;11.30;;;;;;;26.94;48.39;92742.91;5036100;28;20197;-74
2022/08/19 06:36:00;;;;;;;18.98;12.73;;;;;;;26.25;50.06;92742.84;5032919;28;20249;-71
2022/08/19 06:38:26;;;;;;;19.85;12.48;;;;;;;26.48;49.43;92734.56;5024924;28;20257;-71
2022/08/19 06:41:00;;;;;;;16.15;10.55;;;;;;;26.64;49.14;92737.75;5034839;28;20197;-70
2022/08/19 06:43:25;;;;;;;13.05;11.88;;;;;;;26.41;50.14;92742.56;5034203;28;20194;-70
2022/08/19 06:45:51;;;;;;;13.45;11.30;;;;;;;26.16;50.97;92744.31;5036626;28;20205;-70
2022/08/19 06:48:17;;;;;;;15.15;11.35;;;;;;;26.22;51.36;92748.94;5038626;28;20198;-70
2022/08/19 06:50:42;;;;;;;17.83;11.77;;;;;;;26.22;49.98;92743.59;5036714;28;20245;-69
2022/08/19 06:53:07;;;;;;;11.48;10.35;;;;;;;26.17;50.11;92741.25;5037773;28;20258;-71
2022/08/19 06:55:33;;;;;;;12.75;11.52;;;;;;;26.37;49.40;92750.56;5035130;28;20265;-71
2022/08/19 06:58:03;;;;;;;12.93;11.10;;;;;;;26.44;49.03;92753.31;5037194;28;20195;-72
2022/08/19 07:00:28;;;;;;;12.00;10.73;;;;;;;25.98;49.39;92743.34;5041063;28;20229;-72
2022/08/19 07:02:54;;;;;;;11.90;10.82;;;;;;;25.72;50.37;92746.97;5034756;28;20198;-71
2022/08/19 07:05:19;;;;;;;12.13;10.88;;;;;;;26.04;50.84;92753.38;5038401;28;20226;-71
2022/08/19 07:07:44;;;;;;;11.85;10.63;;;;;;;26.31;50.08;92762.78;5039753;28;20221;-71
2022/08/19 07:10:10;;;;;;;12.70;11.45;;;;;;;26.32;49.77;92758.94;5034858;28;20226;-71
2022/08/19 07:12:35;;;;;;;12.02;10.95;;;;;;;26.23;48.97;92755.84;5036144;28;20958;-72
2022/08/19 07:15:03;;;;;;;13.38;12.18;;;;;;;26.14;49.93;92757.28;5035548;28;20249;-72
2022/08/19 07:17:28;;;;;;;15.80;12.68;;;;;;;26.79;47.34;92749.34;5035257;28;20194;-70
2022/08/19 07:19:55;;;;;;;11.70;10.60;;;;;;;26.40;48.82;92763.22;5035736;28;20210;-73
2022/08/19 07:22:22;;;;;;;12.02;10.93;;;;;;;26.63;48.69;92763.78;5033653;28;20201;-72
2022/08/19 07:24:48;;;;;;;11.93;11.07;;;;;;;26.16;50.56;92744.31;5036014;28;20337;-71
2022/08/19 07:27:14;;;;;;;12.77;11.50;;;;;;;26.31;50.76;92760.09;5034526;28;20191;-72
2022/08/19 07:29:39;;;;;;;13.52;11.45;;;;;;;26.31;49.28;92746.72;5036270;28;20229;-72
2022/08/19 07:32:05;;;;;;;11.68;10.57;;;;;;;26.99;47.05;92766.66;5032825;28;20175;-72
2022/08/19 07:34:36;;;;;;;12.40;11.25;;;;;;;26.65;49.04;92753.47;5037891;28;20233;-72
2022/08/19 07:37:02;;;;;;;12.13;11.02;;;;;;;26.61;48.85;92774.09;5036696;28;20246;-72
2022/08/19 07:39:30;;;;;;;11.52;10.70;;;;;;;26.56;49.74;92763.72;5035192;28;20210;-71
2022/08/19 07:41:56;;;;;;;13.25;11.18;;;;;;;27.38;47.30;92762.25;5037211;28;20197;-71
2022/08/19 07:44:22;;;;;;;12.52;11.23;;;;;;;27.50;45.90;92764.59;5037145;28;20222;-70
2022/08/19 07:46:51;;;;;;;11.93;10.88;;;;;;;27.31;46.67;92764.91;5037654;28;20209;-73
2022/08/19 07:49:19;;;;;;;10.95;10.05;;;;;;;27.06;48.85;92754.06;5035279;28;20211;-71
2022/08/19 07:51:50;;;;;;;12.88;10.35;;;;;;;27.29;48.02;92756.47;5032332;28;20195;-69
2022/08/19 07:54:17;;;;;;;11.25;10.35;;;;;;;27.74;46.38;92763.84;5037372;28;20278;-70
2022/08/19 07:56:42;;;;;;;14.68;10.98;;;;;;;27.72;45.68;92766.91;5036067;28;20245;-70
2022/08/19 07:59:08;;;;;;;11.32;10.30;;;;;;;27.62;45.96;92765.00;5032703;28;20230;-70
2022/08/19 08:01:34;;;;;;;11.52;10.55;;;;;;;27.73;46.54;92770.38;5036975;28;20186;-69
2022/08/19 08:09:33;;;;;;;16.42;14.55;;;;;;;27.90;43.85;92765.09;5028663;28;20230;-69
2022/08/19 08:12:10;;;;;;;11.50;10.32;;;;;;;27.63;45.72;92768.44;5030234;28;20221;-70
2022/08/19 08:14:43;;;;;;;12.68;11.40;;;;;;;27.90;44.60;92761.63;5035798;28;20226;-71
2022/08/19 08:17:10;;;;;;;10.82;9.93;;;;;;;28.23;43.09;92750.53;5072529;28;20186;-69
2022/08/19 08:19:36;;;;;;;10.13;9.43;;;;;;;28.15;43.08;92743.63;5040076;28;20234;-69
2022/08/19 08:22:03;;;;;;;11.02;10.15;;;;;;;28.21;43.90;92753.59;5036734;28;20216;-68
2022/08/19 08:24:30;;;;;;;10.98;9.82;;;;;;;28.18;43.61;92748.22;5038271;28;20242;-69
2022/08/19 08:26:58;;;;;;;10.07;9.13;;;;;;;28.52;41.37;92759.34;5040534;28;20225;-69
2022/08/19 08:29:25;;;;;;;11.10;9.80;;;;;;;28.01;40.46;92738.25;5037014;28;20226;-69
2022/08/19 08:31:51;;;;;;;11.80;9.60;;;;;;;28.63;41.60;92752.81;5035811;28;20251;-70
2022/08/19 08:34:17;;;;;;;11.10;9.98;;;;;;;28.77;39.55;92757.38;5039057;28;20236;-70
2022/08/19 08:36:45;;;;;;;9.93;9.10;;;;;;;28.71;40.37;92759.69;5041044;28;20220;-69
2022/08/19 08:39:19;;;;;;;10.07;9.38;;;;;;;28.94;40.13;92759.25;5038127;28;20229;-71
2022/08/19 08:42:05;;;;;;;10.98;10.07;;;;;;;28.86;39.66;92745.06;5041057;28;20184;-70
2022/08/19 08:44:47;;;;;;;11.00;9.93;;;;;;;28.73;39.88;92746.66;5034315;28;20211;-70
2022/08/19 08:47:17;;;;;;;11.07;10.25;;;;;;;29.05;39.47;92757.31;5036517;28;20292;-71
2022/08/19 08:50:18;;;;;;;11.63;10.43;;;;;;;29.27;39.23;92746.13;5039258;28;20232;-70
2022/08/19 08:52:51;;;;;;;9.57;8.88;;;;;;;29.05;38.42;92752.69;5006523;28;20240;-71
2022/08/19 08:55:20;;;;;;;10.10;9.30;;;;;;;29.36;36.75;92743.00;5036065;28;20258;-70
2022/08/19 08:57:54;;;;;;;10.43;9.55;;;;;;;29.46;37.73;92750.25;5038246;28;20183;-70
2022/08/19 09:00:24;;;;;;;10.68;9.82;;;;;;;29.66;37.05;92744.03;5036228;28;20233;-69
2022/08/19 09:02:50;;;;;;;9.80;9.10;;;;;;;29.70;35.97;92738.59;5037996;28;20201;-70
2022/08/19 09:05:15;;;;;;;11.05;8.98;;;;;;;29.71;35.81;92738.22;5037431;28;20304;-71
2022/08/19 09:08:02;;;;;;;9.90;8.77;;;;;;;29.79;35.14;92738.94;5041957;28;20269;-71
2022/08/19 09:10:39;;;;;;;9.40;8.75;;;;;;;29.92;34.06;92740.00;5037361;28;20326;-71
2022/08/19 09:13:23;;;;;;;9.23;8.52;;;;;;;29.91;33.47;92743.09;5039629;28;20216;-71
2022/08/19 09:15:55;;;;;;;9.15;8.38;;;;;;;29.72;33.54;92736.28;5036420;28;20234;-70
2022/08/19 09:18:21;;;;;;;10.10;9.13;;;;;;;29.66;34.92;92737.88;5035219;28;20178;-71
2022/08/19 09:20:49;;;;;;;9.93;9.13;;;;;;;29.74;36.21;92733.97;5037807;28;20242;-71
2022/08/19 09:23:15;;;;;;;10.07;8.20;;;;;;;29.52;34.95;92730.63;5038984;28;20178;-70
2022/08/19 09:25:41;;;;;;;9.77;8.90;;;;;;;29.30;35.11;92731.88;5037323;28;20241;-70
2022/08/19 09:28:07;;;;;;;9.68;8.77;;;;;;;28.99;36.12;92727.38;5035287;28;20191;-71
2022/08/19 09:30:38;;;;;;;9.65;8.95;;;;;;;29.64;34.40;92719.41;5030238;28;20222;-69
2022/08/19 09:33:05;;;;;;;11.02;9.13;;;;;;;30.14;34.01;92719.84;5037191;28;20186;-68
2022/08/19 09:35:30;;;;;;;10.65;9.65;;;;;;;30.20;32.84;92725.53;5036709;28;20226;-70
2022/08/19 09:37:57;;;;;;;12.15;9.20;;;;;;;30.27;32.69;92712.84;5035426;28;20196;-68
2022/08/19 09:40:24;;;;;;;9.43;8.80;;;;;;;30.05;33.61;92721.44;5035672;28;20221;-69
2022/08/19 09:42:50;;;;;;;10.90;8.80;;;;;;;29.29;33.80;92719.56;5039371;28;20194;-68
2022/08/19 09:45:21;;;;;;;9.15;8.25;;;;;;;29.78;33.19;92704.34;5037342;28;20252;-69
2022/08/19 09:47:47;;;;;;;9.35;8.73;;;;;;;30.14;33.59;92713.66;5036953;28;20196;-69
2022/08/19 09:50:13;;;;;;;9.82;9.00;;;;;;;30.30;31.56;92716.66;5037949;28;21101;-68
2022/08/19 09:52:41;;;;;;;9.85;8.77;;;;;;;30.23;32.31;92720.16;5036174;28;20179;-69
2022/08/19 09:55:10;;;;;;;8.98;8.38;;;;;;;30.16;30.02;92719.44;5038571;28;20214;-68
2022/08/19 09:57:35;;;;;;;9.40;8.60;;;;;;;29.82;31.88;92718.53;5039730;28;20171;-69
2022/08/19 10:00:03;;;;;;;9.27;8.38;;;;;;;29.89;31.58;92710.41;5035410;28;20237;-69
2022/08/19 10:02:28;;;;;;;10.68;8.80;;;;;;;30.21;31.95;92702.88;5033752;28;20264;-69
2022/08/19 10:07:38;;;;;;;9.40;8.73;;;;;;;30.23;30.60;92705.94;5036315;28;20251;-70
2022/08/19 10:10:06;;;;;;;9.52;8.48;;;;;;;30.07;29.90;92676.03;5039671;28;20230;-70
2022/08/19 10:12:33;;;;;;;8.40;7.80;;;;;;;30.14;29.61;92692.91;5036940;28;20175;-71
2022/08/19 10:14:59;;;;;;;9.07;8.20;;;;;;;30.04;30.14;92695.69;5038001;28;20233;-71
2022/08/19 10:17:25;;;;;;;9.60;8.68;;;;;;;30.41;30.51;92699.22;5039268;28;20214;-70
2022/08/19 10:19:51;;;;;;;9.00;8.40;;;;;;;30.28;30.61;92687.41;5034381;28;20215;-71
2022/08/19 10:22:18;;;;;;;9.98;9.15;;;;;;;30.01;30.55;92694.53;5036846;28;20212;-71
2022/08/19 10:24:43;;;;;;;9.40;8.60;;;;;;;30.09;30.50;92679.84;5032991;28;20234;-70
2022/08/19 10:27:09;;;;;;;9.43;8.57;;;;;;;30.44;30.49;92695.75;5033363;28;20178;-70
2022/08/19 10:29:35;;;;;;;9.38;8.73;;;;;;;30.04;30.88;92658.72;5035761;28;20238;-70
2022/08/19 10:32:02;;;;;;;9.05;8.45;;;;;;;30.67;30.40;92690.50;5036912;28;20182;-70
2022/08/19 10:34:28;;;;;;;10.43;9.55;;;;;;;30.47;29.43;92694.16;5033902;28;20222;-70
2022/08/19 10:36:53;;;;;;;8.80;8.00;;;;;;;30.39;29.58;92687.31;5038080;28;20261;-69
2022/08/19 10:39:19;;;;;;;10.23;9.32;;;;;;;30.65;30.65;92683.94;5038455;28;20224;-69
2022/08/19 10:41:44;;;;;;;8.60;7.93;;;;;;;30.98;28.12;92675.91;5037069;28;20206;-72
2022/08/19 10:44:12;;;;;;;8.23;7.72;;;;;;;31.15;28.91;92684.94;5033191;28;20219;-70
2022/08/19 10:46:41;;;;;;;8.80;8.23;;;;;;;30.79;28.64;92683.84;5036259;28;20179;-70
2022/08/19 10:49:08;;;;;;;9.27;8.38;;;;;;;30.29;27.61;92685.50;5031080;28;20250;-71
2022/08/19 10:54:18;;;;;;;9.70;8.75;;;;;;;30.53;29.36;92671.78;5034722;28;20233;-71
2022/08/19 10:56:53;;;;;;;9.75;8.95;;;;;;;30.41;29.29;92668.81;5036792;28;20269;-72
2022/08/19 10:59:21;;;;;;;9.23;8.32;;;;;;;30.76;29.48;92679.25;5029796;28;20236;-71
2022/08/19 11:01:47;;;;;;;9.07;8.48;;;;;;;30.88;29.61;92673.34;5035604;28;20182;-72
2022/08/19 11:04:13;;;;;;;10.05;8.43;;;;;;;30.77;28.89;92670.00;5035287;28;20277;-70
2022/08/19 11:06:41;;;;;;;11.13;8.85;;;;;;;31.28;28.28;92677.84;5033679;28;20229;-71
2022/08/19 11:09:08;;;;;;;9.07;8.38;;;;;;;31.11;27.75;92670.75;5035029;28;20242;-70
2022/08/19 11:11:40;;;;;;;9.50;8.68;;;;;;;31.16;28.38;92659.53;5033763;28;20190;-72
2022/08/19 11:14:11;;;;;;;9.55;8.82;;;;;;;30.90;29.60;92671.00;5033957;28;20226;-72
2022/08/19 11:16:40;;;;;;;8.52;7.93;;;;;;;30.85;29.29;92660.69;5032636;28;20240;-70
2022/08/19 11:19:07;;;;;;;9.02;8.38;;;;;;;30.93;29.36;92676.34;5033783;28;20232;-71
2022/08/19 11:21:44;;;;;;;10.10;9.30;;;;;;;30.87;29.04;92672.56;5031525;28;20202;-71
2022/08/19 11:24:21;;;;;;;11.50;9.13;;;;;;;30.81;28.82;92665.31;5034010;28;20217;-71
2022/08/19 11:26:49;;;;;;;9.90;9.05;;;;;;;31.07;28.48;92670.00;5036541;28;20196;-72
2022/08/19 11:29:17;;;;;;;10.93;9.57;;;;;;;31.03;28.96;92661.22;5034595;28;20237;-71
2022/08/19 11:31:45;;;;;;;10.63;9.60;;;;;;;31.10;29.29;92647.63;5035815;28;20278;-71
2022/08/19 11:34:15;;;;;;;9.65;8.75;;;;;;;31.00;29.72;92656.63;5036522;28;20241;-73
2022/08/19 11:36:44;;;;;;;9.45;8.75;;;;;;;30.98;29.75;92637.38;5034383;28;20301;-72
2022/08/19 11:39:12;;;;;;;9.85;8.93;;;;;;;31.17;29.34;92655.66;5034392;28;20320;-71
2022/08/19 11:41:38;;;;;;;9.57;8.68;;;;;;;31.02;29.77;92643.50;5033439;28;20184;-72
2022/08/19 11:44:06;;;;;;;9.90;9.05;;;;;;;31.19;29.20;92629.78;5035302;28;20256;-71